createdAt,value
2023-03-27T00:00:02.601Z,7.58
2023-03-27T00:02:30.245Z,7.57
2023-03-27T00:04:57.795Z,7.62
2023-03-27T00:07:25.376Z,7.59
2023-03-27T00:09:52.977Z,7.62
2023-03-27T00:12:20.556Z,7.65
2023-03-27T00:14:47.184Z,7.66
2023-03-27T00:17:15.770Z,7.67
2023-03-27T00:19:43.362Z,7.58
2023-03-27T00:22:10.952Z,7.57
2023-03-27T00:24:38.570Z,7.58
2023-03-27T00:27:07.165Z,7.27
2023-03-27T00:29:34.728Z,7.34
2023-03-27T00:32:03.413Z,7.45
2023-03-27T00:34:30.908Z,7.59
2023-03-27T00:36:57.580Z,7.69
2023-03-27T00:39:24.093Z,7.75
2023-03-27T00:41:52.708Z,7.62
2023-03-27T00:44:20.275Z,7.60
2023-03-27T00:46:47.931Z,7.57
2023-03-27T00:49:15.464Z,7.54
2023-03-27T00:51:43.099Z,7.46
2023-03-27T00:54:09.663Z,7.40
2023-03-27T00:56:37.256Z,7.42
2023-03-27T00:59:04.812Z,7.46
2023-03-27T01:01:32.443Z,7.48
2023-03-27T01:04:00.007Z,7.41
2023-03-27T01:06:27.584Z,7.43
2023-03-27T01:08:54.162Z,7.41
2023-03-27T01:11:21.790Z,7.52
2023-03-27T01:13:49.348Z,7.56
2023-03-27T01:16:16.974Z,7.62
2023-03-27T01:18:44.538Z,7.56
2023-03-27T01:21:11.120Z,7.50
2023-03-27T01:23:58.844Z,7.51
2023-03-27T01:26:35.864Z,7.39
2023-03-27T01:29:04.021Z,7.44
2023-03-27T01:31:30.653Z,7.41
2023-03-27T01:33:58.194Z,7.42
2023-03-27T01:36:24.830Z,6.80
2023-03-27T01:38:53.431Z,6.14
2023-03-27T01:41:21.036Z,5.83
2023-03-27T01:43:47.621Z,5.22
2023-03-27T01:46:15.249Z,5.23
2023-03-27T01:48:42.801Z,5.43
2023-03-27T01:51:10.402Z,5.51
2023-03-27T01:53:36.837Z,5.90
2023-03-27T01:56:04.577Z,6.15
2023-03-27T01:58:32.149Z,6.15
2023-03-27T02:00:58.807Z,6.43
2023-03-27T02:03:26.333Z,6.68
2023-03-27T02:05:53.937Z,6.91
2023-03-27T02:08:20.429Z,7.08
2023-03-27T02:10:48.113Z,7.23
2023-03-27T02:13:15.712Z,7.31
2023-03-27T02:15:42.288Z,7.41
2023-03-27T02:18:09.899Z,7.52
2023-03-27T02:20:37.465Z,7.54
2023-03-27T02:23:03.945Z,7.49
2023-03-27T02:25:30.451Z,7.41
2023-03-27T02:27:57.231Z,7.17
2023-03-27T02:30:24.821Z,7.19
2023-03-27T02:32:52.452Z,6.82
2023-03-27T02:35:20.011Z,6.78
2023-03-27T02:37:47.614Z,6.21
2023-03-27T02:40:15.217Z,5.90
2023-03-27T02:42:46.366Z,5.47
2023-03-27T02:45:13.408Z,5.12
2023-03-27T02:47:40.355Z,5.06
2023-03-27T02:50:07.676Z,5.03
2023-03-27T02:52:35.231Z,4.95
2023-03-27T02:55:02.808Z,4.75
2023-03-27T02:57:31.414Z,4.90
2023-03-27T02:59:59.000Z,5.01
2023-03-27T03:02:26.712Z,5.26
2023-03-27T03:04:54.168Z,5.23
2023-03-27T03:07:21.777Z,5.25
2023-03-27T03:09:49.371Z,5.38
2023-03-27T03:12:16.989Z,5.44
2023-03-27T03:14:44.571Z,5.30
2023-03-27T03:17:12.148Z,5.29
2023-03-27T03:19:38.733Z,5.28
2023-03-27T03:22:06.329Z,5.29
2023-03-27T03:24:35.257Z,5.09
2023-03-27T03:27:02.510Z,4.88
2023-03-27T03:29:29.074Z,4.82
2023-03-27T03:31:55.731Z,4.71
2023-03-27T03:34:23.255Z,4.53
2023-03-27T03:36:50.835Z,4.63
2023-03-27T03:39:18.466Z,4.81
2023-03-27T03:41:46.198Z,4.88
2023-03-27T03:44:13.630Z,5.07
2023-03-27T03:46:42.213Z,5.06
2023-03-27T03:49:10.825Z,5.15
2023-03-27T03:51:37.422Z,5.39
2023-03-27T03:54:05.009Z,5.18
2023-03-27T03:56:32.608Z,5.34
2023-03-27T03:59:00.213Z,5.41
2023-03-27T04:01:27.769Z,5.38
2023-03-27T04:03:54.387Z,5.35
2023-03-27T04:06:21.947Z,5.54
2023-03-27T04:08:49.518Z,5.50
2023-03-27T04:11:17.114Z,5.45
2023-03-27T04:13:44.715Z,5.78
2023-03-27T04:16:12.377Z,5.87
2023-03-27T04:18:39.944Z,5.95
2023-03-27T04:21:07.508Z,6.03
2023-03-27T04:23:35.081Z,6.27
2023-03-27T04:26:01.879Z,6.29
2023-03-27T04:28:29.274Z,6.05
2023-03-27T04:30:58.278Z,5.98
2023-03-27T04:33:25.458Z,5.97
2023-03-27T04:36:06.372Z,6.10
2023-03-27T04:38:34.702Z,5.91
2023-03-27T04:41:01.292Z,5.64
2023-03-27T04:43:29.884Z,5.87
2023-03-27T04:45:57.486Z,6.24
2023-03-27T04:48:24.069Z,6.34
2023-03-27T04:50:52.681Z,6.44
2023-03-27T04:53:19.301Z,6.64
2023-03-27T04:55:45.998Z,6.81
2023-03-27T04:58:13.448Z,6.94
2023-03-27T05:00:40.306Z,6.76
2023-03-27T05:03:07.739Z,6.71
2023-03-27T05:05:35.218Z,6.78
2023-03-27T05:08:02.778Z,6.94
2023-03-27T05:10:30.390Z,7.05
2023-03-27T05:12:58.986Z,7.08
2023-03-27T05:15:26.577Z,7.08
2023-03-27T05:17:55.245Z,7.03
2023-03-27T05:20:22.759Z,7.06
2023-03-27T05:22:51.356Z,6.73
2023-03-27T05:25:18.970Z,6.12
2023-03-27T05:27:46.542Z,6.39
2023-03-27T05:30:14.182Z,6.10
2023-03-27T05:32:41.738Z,6.13
2023-03-27T05:35:09.337Z,5.67
2023-03-27T05:37:35.908Z,5.02
2023-03-27T05:40:03.502Z,4.90
2023-03-27T05:42:32.113Z,4.76
2023-03-27T05:44:59.705Z,4.48
2023-03-27T05:47:28.346Z,4.57
2023-03-27T05:49:55.869Z,4.40
2023-03-27T05:52:23.449Z,4.39
2023-03-27T05:54:56.077Z,4.31
2023-03-27T05:57:23.674Z,4.44
2023-03-27T05:59:50.267Z,4.46
2023-03-27T06:02:19.748Z,4.15
2023-03-27T06:04:48.188Z,4.13
2023-03-27T06:07:15.226Z,4.14
2023-03-27T06:09:43.652Z,4.02
2023-03-27T06:12:11.250Z,4.15
2023-03-27T06:14:37.824Z,4.22
2023-03-27T06:17:05.440Z,3.91
2023-03-27T06:19:33.034Z,3.84
2023-03-27T06:22:00.621Z,3.74
2023-03-27T06:24:28.254Z,3.71
2023-03-27T06:26:54.833Z,3.68
2023-03-27T06:29:22.427Z,3.56
2023-03-27T06:31:49.029Z,3.57
2023-03-27T06:34:16.644Z,3.63
2023-03-27T06:36:44.247Z,3.73
2023-03-27T06:39:11.521Z,3.78
2023-03-27T06:41:38.496Z,3.78
2023-03-27T06:44:06.095Z,3.48
2023-03-27T06:46:44.612Z,3.48
2023-03-27T06:49:12.405Z,3.59
2023-03-27T06:51:39.919Z,3.47
2023-03-27T06:54:08.505Z,3.27
2023-03-27T06:56:36.126Z,3.24
2023-03-27T06:59:03.688Z,3.28
2023-03-27T07:01:30.319Z,3.46
2023-03-27T07:03:57.904Z,3.38
2023-03-27T07:06:26.632Z,3.41
2023-03-27T07:08:54.158Z,3.45
2023-03-27T07:11:21.686Z,3.50
2023-03-27T07:13:48.296Z,3.54
2023-03-27T07:16:16.971Z,3.34
2023-03-27T07:18:44.504Z,3.21
2023-03-27T07:21:11.099Z,3.32
2023-03-27T07:23:38.734Z,3.16
2023-03-27T07:26:06.292Z,3.19
2023-03-27T07:28:32.862Z,3.15
2023-03-27T07:31:00.485Z,2.95
2023-03-27T07:33:28.158Z,2.89
2023-03-27T07:35:55.935Z,2.79
2023-03-27T07:38:23.305Z,2.75
2023-03-27T07:40:49.810Z,2.74
2023-03-27T07:43:16.495Z,2.86
2023-03-27T07:45:44.091Z,3.04
2023-03-27T07:48:13.170Z,3.14
2023-03-27T07:50:40.285Z,3.25
2023-03-27T07:53:06.868Z,3.44
2023-03-27T07:55:33.310Z,3.37
2023-03-27T07:58:02.356Z,3.60
2023-03-27T08:00:29.867Z,3.78
2023-03-27T08:02:56.563Z,4.04
2023-03-27T08:05:23.059Z,3.96
2023-03-27T08:07:49.525Z,4.05
2023-03-27T08:10:16.984Z,4.00
2023-03-27T08:12:44.620Z,3.94
2023-03-27T08:15:11.194Z,3.98
2023-03-27T08:17:37.780Z,3.85
2023-03-27T08:20:05.377Z,3.95
2023-03-27T08:22:31.973Z,4.27
2023-03-27T08:24:58.583Z,3.81
2023-03-27T08:27:25.142Z,3.84
2023-03-27T08:29:51.953Z,4.15
2023-03-27T08:32:18.382Z,4.36
2023-03-27T08:34:44.794Z,4.48
2023-03-27T08:37:11.243Z,4.14
2023-03-27T08:39:39.065Z,4.23
2023-03-27T08:42:06.686Z,4.59
2023-03-27T08:44:34.281Z,4.77
2023-03-27T08:47:00.861Z,4.52
2023-03-27T08:49:27.442Z,4.50
2023-03-27T08:51:54.070Z,4.45
2023-03-27T08:54:20.472Z,4.63
2023-03-27T08:56:46.916Z,4.80
2023-03-27T08:59:16.150Z,4.68
2023-03-27T09:01:43.747Z,4.97
2023-03-27T09:04:10.206Z,4.75
2023-03-27T09:06:37.627Z,4.41
2023-03-27T09:09:04.073Z,4.57
2023-03-27T09:11:30.476Z,4.78
2023-03-27T09:13:57.041Z,4.89
2023-03-27T09:16:24.087Z,4.85
2023-03-27T09:18:50.497Z,4.96
2023-03-27T09:21:16.939Z,5.15
2023-03-27T09:23:43.380Z,4.82
2023-03-27T09:26:09.835Z,4.02
2023-03-27T09:28:36.985Z,4.41
2023-03-27T09:31:04.629Z,4.88
2023-03-27T09:33:31.082Z,5.33
2023-03-27T09:35:57.767Z,5.54
2023-03-27T09:38:24.316Z,5.34
2023-03-27T09:40:50.930Z,4.25
2023-03-27T09:43:17.367Z,4.48
2023-03-27T09:45:43.796Z,4.46
2023-03-27T09:48:10.884Z,4.39
2023-03-27T09:50:37.353Z,3.68
2023-03-27T09:53:03.748Z,4.21
2023-03-27T09:55:30.175Z,4.45
2023-03-27T09:57:57.248Z,4.68
2023-03-27T10:00:23.719Z,4.09
2023-03-27T10:02:50.166Z,4.49
2023-03-27T10:05:16.637Z,4.87
2023-03-27T10:07:43.085Z,5.22
2023-03-27T10:10:09.543Z,5.41
2023-03-27T10:12:35.982Z,4.63
2023-03-27T10:15:03.097Z,4.49
2023-03-27T10:17:30.780Z,4.30
2023-03-27T10:19:58.250Z,4.22
2023-03-27T10:22:24.652Z,3.74
2023-03-27T10:24:51.101Z,4.17
2023-03-27T10:27:17.515Z,4.53
2023-03-27T10:29:43.955Z,4.75
2023-03-27T10:32:10.420Z,4.91
2023-03-27T10:34:36.898Z,5.24
2023-03-27T10:37:03.308Z,5.43
2023-03-27T10:39:29.693Z,5.41
2023-03-27T10:41:56.125Z,5.40
2023-03-27T10:44:22.517Z,5.61
2023-03-27T10:46:48.927Z,5.62
2023-03-27T10:49:17.308Z,4.86
2023-03-27T10:51:46.853Z,4.92
2023-03-27T10:54:13.559Z,4.99
2023-03-27T10:56:40.086Z,5.15
2023-03-27T10:59:06.508Z,5.44
2023-03-27T11:01:32.920Z,5.82
2023-03-27T11:03:59.453Z,6.19
2023-03-27T11:06:25.917Z,6.20
2023-03-27T11:08:52.352Z,5.45
2023-03-27T11:11:18.772Z,5.49
2023-03-27T11:13:45.204Z,4.62
2023-03-27T11:16:11.660Z,4.52
2023-03-27T11:18:38.133Z,3.76
2023-03-27T11:21:04.539Z,2.93
2023-03-27T11:23:30.983Z,3.15
2023-03-27T11:25:57.357Z,3.27
2023-03-27T11:28:23.795Z,3.72
2023-03-27T11:30:50.255Z,3.83
2023-03-27T11:33:16.686Z,3.62
2023-03-27T11:35:43.116Z,4.10
2023-03-27T11:38:09.555Z,3.81
2023-03-27T11:40:35.942Z,4.16
2023-03-27T11:43:02.361Z,3.99
2023-03-27T11:45:28.881Z,4.52
2023-03-27T11:47:55.360Z,4.84
2023-03-27T11:50:21.831Z,4.77
2023-03-27T11:52:48.357Z,4.75
2023-03-27T11:55:14.754Z,4.90
2023-03-27T11:57:41.160Z,5.47
2023-03-27T12:00:07.552Z,6.14
2023-03-27T12:02:34.026Z,5.89
2023-03-27T12:05:00.579Z,6.07
2023-03-27T12:07:36.146Z,5.70
2023-03-27T12:10:04.353Z,6.09
2023-03-27T12:12:30.754Z,5.80
2023-03-27T12:14:57.398Z,4.82
2023-03-27T12:17:23.837Z,5.19
2023-03-27T12:19:50.244Z,4.77
2023-03-27T12:22:23.602Z,4.49
2023-03-27T12:24:59.385Z,5.26
2023-03-27T12:27:26.452Z,5.57
2023-03-27T12:29:52.831Z,5.76
2023-03-27T12:32:19.235Z,5.23
2023-03-27T12:34:45.622Z,5.90
2023-03-27T12:37:12.009Z,6.31
2023-03-27T12:39:38.423Z,6.18
2023-03-27T12:42:04.789Z,5.56
2023-03-27T12:44:31.181Z,5.52
2023-03-27T12:46:57.614Z,5.97
2023-03-27T12:49:29.330Z,6.39
2023-03-27T12:52:00.763Z,6.00
2023-03-27T12:54:27.213Z,5.83
2023-03-27T12:56:53.722Z,6.13
2023-03-27T12:59:20.214Z,4.88
2023-03-27T13:01:52.061Z,5.22
2023-03-27T13:04:19.128Z,5.54
2023-03-27T13:06:45.534Z,5.99
2023-03-27T13:09:11.907Z,5.80
2023-03-27T13:11:38.321Z,6.10
2023-03-27T13:14:04.742Z,6.25
2023-03-27T13:16:31.245Z,5.42
2023-03-27T13:18:57.672Z,5.10
2023-03-27T13:21:24.100Z,5.30
2023-03-27T13:23:50.479Z,5.73
2023-03-27T13:26:16.909Z,6.39
2023-03-27T13:28:43.283Z,6.94
2023-03-27T13:31:09.756Z,7.40
2023-03-27T13:33:36.379Z,7.78
2023-03-27T13:36:02.814Z,7.66
2023-03-27T13:38:29.312Z,7.92
2023-03-27T13:40:55.707Z,8.06
2023-03-27T13:43:22.140Z,7.93
2023-03-27T13:45:48.532Z,7.93
2023-03-27T13:48:14.913Z,8.10
2023-03-27T13:50:41.337Z,8.17
2023-03-27T13:53:07.734Z,8.02
2023-03-27T13:55:34.137Z,6.64
2023-03-27T13:58:00.531Z,6.31
2023-03-27T14:00:26.922Z,6.80
2023-03-27T14:02:53.459Z,6.95
2023-03-27T14:05:20.052Z,7.16
2023-03-27T14:07:46.465Z,7.19
2023-03-27T14:10:12.863Z,6.58
2023-03-27T14:12:39.281Z,6.60
2023-03-27T14:15:06.264Z,6.96
2023-03-27T14:17:33.393Z,7.23
2023-03-27T14:19:59.851Z,6.17
2023-03-27T14:22:26.254Z,6.09
2023-03-27T14:24:52.678Z,6.36
2023-03-27T14:27:19.051Z,6.62
2023-03-27T14:29:45.442Z,6.79
2023-03-27T14:32:11.845Z,7.12
2023-03-27T14:34:51.036Z,6.65
2023-03-27T14:37:19.937Z,6.14
2023-03-27T14:39:46.318Z,5.90
2023-03-27T14:42:12.718Z,5.81
2023-03-27T14:44:39.116Z,5.54
2023-03-27T14:47:05.524Z,5.95
2023-03-27T14:49:31.906Z,6.07
2023-03-27T14:51:58.310Z,6.51
2023-03-27T14:54:24.761Z,6.90
2023-03-27T14:56:51.199Z,7.04
2023-03-27T14:59:17.589Z,6.54
2023-03-27T15:01:44.022Z,6.89
2023-03-27T15:04:10.533Z,7.14
2023-03-27T15:06:37.081Z,7.07
2023-03-27T15:09:03.464Z,7.10
2023-03-27T15:11:29.857Z,7.31
2023-03-27T15:13:56.260Z,7.31
2023-03-27T15:16:22.700Z,7.29
2023-03-27T15:18:49.141Z,7.38
2023-03-27T15:21:15.509Z,7.58
2023-03-27T15:23:41.902Z,7.77
2023-03-27T15:26:08.461Z,7.98
2023-03-27T15:28:34.829Z,8.07
2023-03-27T15:31:01.316Z,7.56
2023-03-27T15:33:27.770Z,6.63
2023-03-27T15:35:54.192Z,6.52
2023-03-27T15:38:20.640Z,6.38
2023-03-27T15:40:47.051Z,6.42
2023-03-27T15:43:13.448Z,6.37
2023-03-27T15:45:39.836Z,6.50
2023-03-27T15:48:06.253Z,6.60
2023-03-27T15:50:32.677Z,6.79
2023-03-27T15:52:59.063Z,6.98
2023-03-27T15:55:25.436Z,7.13
2023-03-27T15:57:51.803Z,7.27
2023-03-27T16:00:18.233Z,7.39
2023-03-27T16:02:44.667Z,7.53
2023-03-27T16:05:11.111Z,7.61
2023-03-27T16:07:37.490Z,7.57
2023-03-27T16:10:03.889Z,7.57
2023-03-27T16:12:30.275Z,7.59
2023-03-27T16:14:57.063Z,7.65
2023-03-27T16:17:23.752Z,7.70
2023-03-27T16:19:50.193Z,7.75
2023-03-27T16:22:16.577Z,7.74
2023-03-27T16:24:42.957Z,7.74
2023-03-27T16:27:09.345Z,7.75
2023-03-27T16:29:35.721Z,7.78
2023-03-27T16:32:02.098Z,7.84
2023-03-27T16:34:28.477Z,7.93
2023-03-27T16:36:54.867Z,7.97
2023-03-27T16:39:21.282Z,8.01
2023-03-27T16:41:47.656Z,8.02
2023-03-27T16:44:14.268Z,7.95
2023-03-27T16:46:40.677Z,7.91
2023-03-27T16:49:07.068Z,7.89
2023-03-27T16:51:33.460Z,7.87
2023-03-27T16:53:59.847Z,7.77
2023-03-27T16:56:26.238Z,7.70
2023-03-27T16:58:52.628Z,7.65
2023-03-27T17:01:19.046Z,7.69
2023-03-27T17:03:45.493Z,7.70
2023-03-27T17:06:11.857Z,7.70
2023-03-27T17:08:38.283Z,7.64
2023-03-27T17:11:04.694Z,7.62
2023-03-27T17:13:31.092Z,7.62
2023-03-27T17:15:57.723Z,7.59
2023-03-27T17:18:24.281Z,7.52
2023-03-27T17:20:50.672Z,7.37
2023-03-27T17:23:17.046Z,7.25
2023-03-27T17:25:43.440Z,7.21
2023-03-27T17:28:09.815Z,7.27
2023-03-27T17:30:41.103Z,7.31
2023-03-27T17:33:09.345Z,7.26
2023-03-27T17:35:35.823Z,7.20
2023-03-27T17:38:02.234Z,7.18
2023-03-27T17:40:28.633Z,7.17
2023-03-27T17:42:55.050Z,7.17
2023-03-27T17:45:21.440Z,6.94
2023-03-27T17:47:48.020Z,6.85
2023-03-27T17:50:14.410Z,6.88
2023-03-27T17:52:40.797Z,6.82
2023-03-27T17:55:07.181Z,6.53
2023-03-27T17:57:33.575Z,5.59
2023-03-27T17:59:59.974Z,5.67
2023-03-27T18:02:26.554Z,5.86
2023-03-27T18:04:53.031Z,5.86
2023-03-27T18:07:19.504Z,5.85
2023-03-27T18:09:45.940Z,5.65
2023-03-27T18:12:12.361Z,5.50
2023-03-27T18:14:38.762Z,5.56
2023-03-27T18:17:05.169Z,5.54
2023-03-27T18:19:31.571Z,5.70
2023-03-27T18:21:58.009Z,5.83
2023-03-27T18:24:24.658Z,5.97
2023-03-27T18:26:51.087Z,6.09
2023-03-27T18:29:17.488Z,6.17
2023-03-27T18:31:43.949Z,5.96
2023-03-27T18:34:10.331Z,5.68
2023-03-27T18:36:36.724Z,5.74
2023-03-27T18:39:03.180Z,5.86
2023-03-27T18:41:29.654Z,5.81
2023-03-27T18:43:56.043Z,5.79
2023-03-27T18:46:22.490Z,5.37
2023-03-27T18:48:48.926Z,5.47
2023-03-27T18:51:15.327Z,5.54
2023-03-27T18:53:41.743Z,5.65
2023-03-27T18:56:08.257Z,5.81
2023-03-27T18:58:34.701Z,5.92
2023-03-27T19:01:01.162Z,5.90
2023-03-27T19:03:27.619Z,5.98
2023-03-27T19:05:54.073Z,6.04
2023-03-27T19:08:20.451Z,6.12
2023-03-27T19:10:46.849Z,6.16
2023-03-27T19:13:13.254Z,6.21
2023-03-27T19:15:39.634Z,6.23
2023-03-27T19:18:06.020Z,6.28
2023-03-27T19:20:32.473Z,6.29
2023-03-27T19:22:58.861Z,6.28
2023-03-27T19:25:25.261Z,6.24
2023-03-27T19:27:51.669Z,6.23
2023-03-27T19:30:18.051Z,6.25
2023-03-27T19:32:44.503Z,6.28
2023-03-27T19:35:10.926Z,6.32
2023-03-27T19:37:37.321Z,6.36
2023-03-27T19:40:03.720Z,6.39
2023-03-27T19:42:30.122Z,6.32
2023-03-27T19:44:56.505Z,6.32
2023-03-27T19:47:22.901Z,6.30
2023-03-27T19:49:49.324Z,6.31
2023-03-27T19:52:15.769Z,6.32
2023-03-27T19:54:42.187Z,6.33
2023-03-27T19:57:08.623Z,6.36
2023-03-27T19:59:35.083Z,6.36
2023-03-27T20:02:01.543Z,6.37
2023-03-27T20:04:27.929Z,6.32
2023-03-27T20:06:54.388Z,6.28
2023-03-27T20:09:20.815Z,6.18
2023-03-27T20:11:47.197Z,6.08
2023-03-27T20:14:13.605Z,5.92
2023-03-27T20:16:40.034Z,5.85
2023-03-27T20:19:06.449Z,4.84
2023-03-27T20:21:32.897Z,4.82
2023-03-27T20:23:59.302Z,5.05
2023-03-27T20:26:25.716Z,5.08
2023-03-27T20:28:52.162Z,5.18
2023-03-27T20:31:18.662Z,5.29
2023-03-27T20:33:45.102Z,5.27
2023-03-27T20:36:11.563Z,5.14
2023-03-27T20:38:38.060Z,5.31
2023-03-27T20:41:04.531Z,5.47
2023-03-27T20:43:31.052Z,5.19
2023-03-27T20:45:57.613Z,5.22
2023-03-27T20:48:24.160Z,5.35
2023-03-27T20:50:50.597Z,5.49
2023-03-27T20:53:16.977Z,5.25
2023-03-27T20:55:49.881Z,5.36
2023-03-27T20:58:25.582Z,5.50
2023-03-27T21:00:52.041Z,5.49
2023-03-27T21:03:18.527Z,5.33
2023-03-27T21:05:44.974Z,4.76
2023-03-27T21:08:11.402Z,4.84
2023-03-27T21:10:37.934Z,4.46
2023-03-27T21:13:04.345Z,4.49
2023-03-27T21:15:30.764Z,4.18
2023-03-27T21:17:57.372Z,4.44
2023-03-27T21:20:23.821Z,4.59
2023-03-27T21:22:50.265Z,4.53
2023-03-27T21:25:16.705Z,4.35
2023-03-27T21:27:43.128Z,4.42
2023-03-27T21:30:09.561Z,4.69
2023-03-27T21:32:36.023Z,4.95
2023-03-27T21:35:02.490Z,4.50
2023-03-27T21:37:28.916Z,4.46
2023-03-27T21:39:55.321Z,4.56
2023-03-27T21:42:21.792Z,4.68
2023-03-27T21:44:53.002Z,4.91
2023-03-27T21:47:21.367Z,5.14
2023-03-27T21:49:47.774Z,5.33
2023-03-27T21:52:14.182Z,5.33
2023-03-27T21:54:45.307Z,5.40
2023-03-27T21:57:19.514Z,5.54
2023-03-27T21:59:45.972Z,5.65
2023-03-27T22:02:12.365Z,5.65
2023-03-27T22:04:38.873Z,5.63
2023-03-27T22:07:05.324Z,5.66
2023-03-27T22:09:31.740Z,5.75
2023-03-27T22:11:58.153Z,5.83
2023-03-27T22:14:24.595Z,5.86
2023-03-27T22:16:51.109Z,5.75
2023-03-27T22:19:17.538Z,5.75
2023-03-27T22:21:43.978Z,5.79
2023-03-27T22:24:10.473Z,5.85
2023-03-27T22:26:37.010Z,5.91
2023-03-27T22:29:03.416Z,5.94
2023-03-27T22:31:29.905Z,5.92
2023-03-27T22:33:56.348Z,5.90
2023-03-27T22:36:22.771Z,5.89
2023-03-27T22:38:49.176Z,5.49
2023-03-27T22:41:15.587Z,5.43
2023-03-27T22:43:42.007Z,5.49
2023-03-27T22:46:08.500Z,5.54
2023-03-27T22:48:34.981Z,5.58
2023-03-27T22:51:01.447Z,5.56
2023-03-27T22:53:27.878Z,5.48
2023-03-27T22:55:54.281Z,5.41
2023-03-27T22:58:20.719Z,5.36
2023-03-27T23:00:47.113Z,5.30
2023-03-27T23:03:13.594Z,5.30
2023-03-27T23:05:40.069Z,5.30
2023-03-27T23:08:06.549Z,5.29
2023-03-27T23:10:32.980Z,5.29
2023-03-27T23:12:59.411Z,5.28
2023-03-27T23:15:29.749Z,5.27
2023-03-27T23:17:57.461Z,5.25
2023-03-27T23:20:23.880Z,5.19
2023-03-27T23:22:50.319Z,5.17
2023-03-27T23:25:16.782Z,3.95
2023-03-27T23:27:43.193Z,3.83
2023-03-27T23:30:09.638Z,3.87
2023-03-27T23:32:36.080Z,4.10
2023-03-27T23:35:02.520Z,4.30
2023-03-27T23:37:28.943Z,4.48
2023-03-27T23:39:55.347Z,4.62
2023-03-27T23:42:21.785Z,4.75
2023-03-27T23:44:48.179Z,4.87
2023-03-27T23:47:14.593Z,4.94
2023-03-27T23:49:41.014Z,5.05
2023-03-27T23:52:07.389Z,5.00
2023-03-27T23:54:33.754Z,4.60
2023-03-27T23:57:00.190Z,4.03
2023-03-27T23:59:26.661Z,4.15
